Big Trout Lake Airport


Codes: CYTL/YTL
Name: Big Trout Lake Airport
City: Big Trout Lake
Country: Canada
Elevation: 729 ft.
Wikipedia:

Photos at Big Trout Lake Airport


   Photos courtesy of SpottingLog. You can add your own sightings and photos by signing up for a free trial today.



No photos found.

Weather at Big Trout Lake Airport


Time (UTC)DescriptionTempratureWindCloud coverageVisibilityPressureHumidity
17-Apr-2024 21:00Light Snow1°C13 mph, E100%10000m1015hPa87%
18-Apr-2024 00:00Snow1°C13 mph, E100%69m1015hPa91%
18-Apr-2024 03:00Snow1°C13 mph, E100%167m1014hPa94%
18-Apr-2024 06:00Light Snow-0°C11 mph, E100%157m1013hPa98%
18-Apr-2024 09:00Snow-1°C9 mph, E100%154m1011hPa98%
18-Apr-2024 12:00Snow-1°C9 mph, E100%127m1010hPa98%
18-Apr-2024 15:00Snow-0°C9 mph, E100%146m1009hPa99%
18-Apr-2024 18:00Light Snow1°C4 mph, E100%67m1008hPa99%
18-Apr-2024 21:00Light Snow0°C4 mph, E100%36m1008hPa100%
19-Apr-2024 00:00Light Snow0°C4 mph, NE100%33m1007hPa99%
19-Apr-2024 03:00Light Snow-0°C4 mph, NE100%29m1007hPa99%
19-Apr-2024 06:00Light Snow-0°C4 mph, NE100%43m1005hPa99%
19-Apr-2024 09:00Light Snow-0°C4 mph, N100%45m1005hPa99%
19-Apr-2024 12:00Light Snow-1°C7 mph, N100%271m1005hPa98%
19-Apr-2024 15:00Light Snow-0°C9 mph, N100%157m1005hPa97%
19-Apr-2024 18:00Light Snow-0°C11 mph, N100%644m1006hPa95%
19-Apr-2024 21:00Light Snow-0°C13 mph, N100%597m1007hPa94%
20-Apr-2024 00:00Light Snow-2°C16 mph, N100%243m1009hPa95%
20-Apr-2024 03:00Light Snow-3°C16 mph, N100%249m1011hPa94%
20-Apr-2024 06:00Light Snow-5°C16 mph, NW100%10000m1012hPa88%
20-Apr-2024 09:00Overcast Clouds-9°C13 mph, NW85%10000m1013hPa85%
20-Apr-2024 12:00Broken Clouds-9°C11 mph, W69%10000m1014hPa80%
20-Apr-2024 15:00Overcast Clouds-3°C16 mph, W100%10000m1012hPa83%
20-Apr-2024 18:00Light Snow-1°C16 mph, N100%0m1011hPa92%
20-Apr-2024 21:00Light Snow0°C16 mph, NW100%6084m1012hPa87%
21-Apr-2024 00:00Light Snow-2°C13 mph, NW98%10000m1013hPa82%
21-Apr-2024 03:00Overcast Clouds-6°C9 mph, NW87%10000m1013hPa91%
21-Apr-2024 06:00Broken Clouds-9°C9 mph, NW77%10000m1013hPa89%
21-Apr-2024 09:00Clear Sky-12°C11 mph, NW8%10000m1014hPa84%
21-Apr-2024 12:00Clear Sky-14°C13 mph, NW10%10000m1016hPa79%
21-Apr-2024 15:00Scattered Clouds-13°C13 mph, NW34%10000m1018hPa67%
21-Apr-2024 18:00Scattered Clouds-10°C13 mph, NW40%10000m1017hPa62%
21-Apr-2024 21:00Overcast Clouds-7°C16 mph, NW99%10000m1016hPa61%
22-Apr-2024 00:00Overcast Clouds-8°C13 mph, NW100%10000m1017hPa75%
22-Apr-2024 03:00Overcast Clouds-11°C9 mph, NW95%10000m1018hPa85%
22-Apr-2024 06:00Broken Clouds-13°C7 mph, N79%10000m1019hPa91%
22-Apr-2024 09:00Clear Sky-15°C4 mph, NW10%10000m1020hPa88%
22-Apr-2024 12:00Clear Sky-15°C7 mph, NW5%10000m1021hPa82%
22-Apr-2024 15:00Clear Sky-11°C7 mph, NW7%10000m1020hPa66%
22-Apr-2024 18:00Clear Sky-7°C7 mph, NW10%10000m1018hPa57%